Topsham Four Corners, Vermont
Current Conditions -  °F | °C
As of 9:51 PM on Wednesday 22 Oct 2014 (Local Time) from KMPV Reporting Station
Overcast Overcast  
Wind Chill: 44°   Ceiling: 2200
Heat Index: 48°   Visibility: 10mi
Dew Point: 41°   Wind: 8mph
Humidity: 77%   Direction: 10°N
Pressure: 30.11"   Gusts: NA
Location:  44.0639°N, 72.2226°W
Report Text: KMPV 230151Z AUTO 01007KT 10SM OVC022 09/05 A3011 RMK AO2 SLP204 T00890050 $
Loading
Personal Weather Stations






























Interactive Weather Map
Tropical Storm Tracking
New forecast layout! Learn more

10-Day Weather Forecast

Advertisements
Track Severe Weather on mobile